sensor_id;sensor_type;location;lat;lon;timestamp;P1;durP1;ratioP1;P2;durP2;ratioP2
14369;SDS011;7268;50.792;0.252;2022-08-19T00:01:51;10.23;;;2.92;;
14369;SDS011;7268;50.792;0.252;2022-08-19T00:04:21;10.27;;;2.70;;
14369;SDS011;7268;50.792;0.252;2022-08-19T00:06:48;12.93;;;2.30;;
14369;SDS011;7268;50.792;0.252;2022-08-19T00:09:17;8.68;;;1.90;;
14369;SDS011;7268;50.792;0.252;2022-08-19T00:11:45;15.35;;;2.67;;
14369;SDS011;7268;50.792;0.252;2022-08-19T00:14:14;6.90;;;1.80;;
14369;SDS011;7268;50.792;0.252;2022-08-19T00:16:43;7.78;;;2.40;;
14369;SDS011;7268;50.792;0.252;2022-08-19T00:19:10;7.32;;;1.73;;
14369;SDS011;7268;50.792;0.252;2022-08-19T00:21:38;8.30;;;1.67;;
14369;SDS011;7268;50.792;0.252;2022-08-19T00:24:09;9.10;;;1.58;;
14369;SDS011;7268;50.792;0.252;2022-08-19T00:26:37;11.75;;;1.77;;
14369;SDS011;7268;50.792;0.252;2022-08-19T00:29:05;6.05;;;1.45;;
14369;SDS011;7268;50.792;0.252;2022-08-19T00:31:33;7.43;;;1.88;;
14369;SDS011;7268;50.792;0.252;2022-08-19T00:34:00;5.20;;;1.85;;
14369;SDS011;7268;50.792;0.252;2022-08-19T00:36:29;5.72;;;1.70;;
14369;SDS011;7268;50.792;0.252;2022-08-19T00:38:58;7.25;;;1.48;;
14369;SDS011;7268;50.792;0.252;2022-08-19T00:41:25;3.35;;;1.05;;
14369;SDS011;7268;50.792;0.252;2022-08-19T00:43:57;7.05;;;1.40;;
14369;SDS011;7268;50.792;0.252;2022-08-19T00:46:25;5.82;;;1.55;;
14369;SDS011;7268;50.792;0.252;2022-08-19T00:48:53;7.97;;;1.55;;
14369;SDS011;7268;50.792;0.252;2022-08-19T00:51:21;9.48;;;1.85;;
14369;SDS011;7268;50.792;0.252;2022-08-19T00:53:53;3.97;;;1.40;;
14369;SDS011;7268;50.792;0.252;2022-08-19T00:56:21;5.97;;;1.33;;
14369;SDS011;7268;50.792;0.252;2022-08-19T00:58:49;8.40;;;1.70;;
14369;SDS011;7268;50.792;0.252;2022-08-19T01:01:16;3.30;;;1.80;;
14369;SDS011;7268;50.792;0.252;2022-08-19T01:03:44;12.07;;;2.20;;
14369;SDS011;7268;50.792;0.252;2022-08-19T01:06:23;4.03;;;1.20;;
14369;SDS011;7268;50.792;0.252;2022-08-19T01:08:51;3.67;;;1.10;;
14369;SDS011;7268;50.792;0.252;2022-08-19T01:11:18;2.92;;;0.90;;
14369;SDS011;7268;50.792;0.252;2022-08-19T01:13:45;8.48;;;1.75;;
14369;SDS011;7268;50.792;0.252;2022-08-19T01:16:16;3.55;;;1.50;;
14369;SDS011;7268;50.792;0.252;2022-08-19T01:18:43;7.00;;;1.13;;
14369;SDS011;7268;50.792;0.252;2022-08-19T01:24:07;7.72;;;1.10;;
14369;SDS011;7268;50.792;0.252;2022-08-19T01:26:38;3.72;;;0.98;;
14369;SDS011;7268;50.792;0.252;2022-08-19T01:29:07;2.15;;;0.95;;
14369;SDS011;7268;50.792;0.252;2022-08-19T01:31:35;4.13;;;1.20;;
14369;SDS011;7268;50.792;0.252;2022-08-19T01:34:06;3.95;;;1.40;;
14369;SDS011;7268;50.792;0.252;2022-08-19T01:39:02;3.03;;;0.73;;
14369;SDS011;7268;50.792;0.252;2022-08-19T01:41:30;3.03;;;0.70;;
14369;SDS011;7268;50.792;0.252;2022-08-19T01:43:57;5.85;;;1.30;;
14369;SDS011;7268;50.792;0.252;2022-08-19T01:46:43;3.55;;;0.90;;
14369;SDS011;7268;50.792;0.252;2022-08-19T01:49:10;2.78;;;0.70;;
14369;SDS011;7268;50.792;0.252;2022-08-19T01:51:38;1.90;;;0.98;;
14369;SDS011;7268;50.792;0.252;2022-08-19T01:54:09;4.53;;;1.25;;
14369;SDS011;7268;50.792;0.252;2022-08-19T01:56:37;5.88;;;1.20;;
14369;SDS011;7268;50.792;0.252;2022-08-19T01:59:08;8.00;;;1.58;;
14369;SDS011;7268;50.792;0.252;2022-08-19T02:01:35;8.02;;;1.48;;
14369;SDS011;7268;50.792;0.252;2022-08-19T02:04:03;8.27;;;1.20;;
14369;SDS011;7268;50.792;0.252;2022-08-19T02:06:31;5.60;;;1.20;;
14369;SDS011;7268;50.792;0.252;2022-08-19T02:08:59;5.72;;;0.88;;
14369;SDS011;7268;50.792;0.252;2022-08-19T02:11:28;10.20;;;1.25;;
14369;SDS011;7268;50.792;0.252;2022-08-19T02:13:58;8.98;;;1.10;;
14369;SDS011;7268;50.792;0.252;2022-08-19T02:16:25;7.00;;;1.60;;
14369;SDS011;7268;50.792;0.252;2022-08-19T02:18:53;4.10;;;1.70;;
14369;SDS011;7268;50.792;0.252;2022-08-19T02:21:21;9.57;;;1.60;;
14369;SDS011;7268;50.792;0.252;2022-08-19T02:23:49;6.97;;;2.15;;
14369;SDS011;7268;50.792;0.252;2022-08-19T02:26:17;12.13;;;2.05;;
14369;SDS011;7268;50.792;0.252;2022-08-19T02:28:45;6.88;;;1.73;;
14369;SDS011;7268;50.792;0.252;2022-08-19T02:31:16;10.52;;;2.60;;
14369;SDS011;7268;50.792;0.252;2022-08-19T02:33:44;18.10;;;2.25;;
14369;SDS011;7268;50.792;0.252;2022-08-19T02:36:12;9.90;;;2.17;;
14369;SDS011;7268;50.792;0.252;2022-08-19T02:38:41;10.52;;;2.15;;
14369;SDS011;7268;50.792;0.252;2022-08-19T02:41:15;10.40;;;2.58;;
14369;SDS011;7268;50.792;0.252;2022-08-19T02:43:42;15.43;;;2.38;;
14369;SDS011;7268;50.792;0.252;2022-08-19T02:46:31;9.43;;;3.13;;
14369;SDS011;7268;50.792;0.252;2022-08-19T02:49:00;21.88;;;4.60;;
14369;SDS011;7268;50.792;0.252;2022-08-19T02:51:29;20.52;;;4.10;;
14369;SDS011;7268;50.792;0.252;2022-08-19T02:53:57;18.25;;;3.83;;
14369;SDS011;7268;50.792;0.252;2022-08-19T02:56:26;21.63;;;4.30;;
14369;SDS011;7268;50.792;0.252;2022-08-19T02:58:54;15.48;;;3.95;;
14369;SDS011;7268;50.792;0.252;2022-08-19T03:03:49;15.23;;;2.90;;
14369;SDS011;7268;50.792;0.252;2022-08-19T03:06:17;14.45;;;2.58;;
14369;SDS011;7268;50.792;0.252;2022-08-19T03:08:45;12.25;;;2.45;;
14369;SDS011;7268;50.792;0.252;2022-08-19T03:11:14;19.50;;;2.92;;
14369;SDS011;7268;50.792;0.252;2022-08-19T03:13:41;19.60;;;3.50;;
14369;SDS011;7268;50.792;0.252;2022-08-19T03:16:10;16.88;;;2.95;;
14369;SDS011;7268;50.792;0.252;2022-08-19T03:18:37;10.48;;;2.03;;
14369;SDS011;7268;50.792;0.252;2022-08-19T03:21:05;11.10;;;2.35;;
14369;SDS011;7268;50.792;0.252;2022-08-19T03:23:37;14.98;;;2.78;;
14369;SDS011;7268;50.792;0.252;2022-08-19T03:26:06;12.32;;;1.90;;
14369;SDS011;7268;50.792;0.252;2022-08-19T03:28:43;16.50;;;2.10;;
14369;SDS011;7268;50.792;0.252;2022-08-19T03:31:17;9.95;;;2.25;;
14369;SDS011;7268;50.792;0.252;2022-08-19T03:34:05;13.50;;;2.20;;
14369;SDS011;7268;50.792;0.252;2022-08-19T03:36:33;13.60;;;2.67;;
14369;SDS011;7268;50.792;0.252;2022-08-19T03:39:00;22.67;;;3.00;;
14369;SDS011;7268;50.792;0.252;2022-08-19T03:41:31;12.30;;;3.40;;
14369;SDS011;7268;50.792;0.252;2022-08-19T03:44:10;19.88;;;4.20;;
14369;SDS011;7268;50.792;0.252;2022-08-19T03:46:44;18.17;;;3.72;;
14369;SDS011;7268;50.792;0.252;2022-08-19T03:49:11;15.35;;;3.50;;
14369;SDS011;7268;50.792;0.252;2022-08-19T03:51:39;19.33;;;3.20;;
14369;SDS011;7268;50.792;0.252;2022-08-19T03:54:10;19.38;;;3.67;;
14369;SDS011;7268;50.792;0.252;2022-08-19T03:56:38;16.23;;;3.42;;
14369;SDS011;7268;50.792;0.252;2022-08-19T03:59:08;14.18;;;2.72;;
14369;SDS011;7268;50.792;0.252;2022-08-19T04:01:35;13.43;;;2.50;;
14369;SDS011;7268;50.792;0.252;2022-08-19T04:04:03;15.90;;;3.28;;
14369;SDS011;7268;50.792;0.252;2022-08-19T04:06:32;20.40;;;3.45;;
14369;SDS011;7268;50.792;0.252;2022-08-19T04:09:00;12.23;;;2.70;;
14369;SDS011;7268;50.792;0.252;2022-08-19T04:11:30;11.70;;;3.08;;
14369;SDS011;7268;50.792;0.252;2022-08-19T04:14:14;15.32;;;3.72;;
14369;SDS011;7268;50.792;0.252;2022-08-19T04:16:42;21.77;;;4.32;;
14369;SDS011;7268;50.792;0.252;2022-08-19T04:19:10;16.52;;;3.65;;
14369;SDS011;7268;50.792;0.252;2022-08-19T04:21:38;27.73;;;4.40;;
14369;SDS011;7268;50.792;0.252;2022-08-19T04:24:05;17.55;;;4.15;;
14369;SDS011;7268;50.792;0.252;2022-08-19T04:26:34;23.48;;;3.55;;
14369;SDS011;7268;50.792;0.252;2022-08-19T04:29:09;17.48;;;3.97;;
14369;SDS011;7268;50.792;0.252;2022-08-19T04:31:38;18.52;;;4.82;;
14369;SDS011;7268;50.792;0.252;2022-08-19T04:34:07;16.55;;;3.83;;
14369;SDS011;7268;50.792;0.252;2022-08-19T04:36:37;15.85;;;3.40;;
14369;SDS011;7268;50.792;0.252;2022-08-19T04:39:07;18.65;;;3.55;;
14369;SDS011;7268;50.792;0.252;2022-08-19T04:41:35;15.95;;;3.47;;
14369;SDS011;7268;50.792;0.252;2022-08-19T04:44:21;21.25;;;3.33;;
14369;SDS011;7268;50.792;0.252;2022-08-19T04:46:48;15.35;;;3.78;;
14369;SDS011;7268;50.792;0.252;2022-08-19T04:49:20;15.00;;;3.75;;
14369;SDS011;7268;50.792;0.252;2022-08-19T04:51:49;20.02;;;3.10;;
14369;SDS011;7268;50.792;0.252;2022-08-19T04:54:17;14.63;;;2.90;;
14369;SDS011;7268;50.792;0.252;2022-08-19T04:57:05;19.30;;;3.08;;
14369;SDS011;7268;50.792;0.252;2022-08-19T04:59:33;14.95;;;3.17;;
14369;SDS011;7268;50.792;0.252;2022-08-19T05:02:01;20.77;;;3.85;;
14369;SDS011;7268;50.792;0.252;2022-08-19T05:04:28;21.58;;;4.65;;
14369;SDS011;7268;50.792;0.252;2022-08-19T05:06:59;32.92;;;6.32;;
14369;SDS011;7268;50.792;0.252;2022-08-19T05:09:28;32.38;;;5.45;;
14369;SDS011;7268;50.792;0.252;2022-08-19T05:12:16;29.60;;;6.72;;
14369;SDS011;7268;50.792;0.252;2022-08-19T05:14:43;36.55;;;7.63;;
14369;SDS011;7268;50.792;0.252;2022-08-19T05:17:12;32.40;;;6.72;;
14369;SDS011;7268;50.792;0.252;2022-08-19T05:20:00;33.70;;;6.00;;
14369;SDS011;7268;50.792;0.252;2022-08-19T05:22:46;32.47;;;6.25;;
14369;SDS011;7268;50.792;0.252;2022-08-19T05:25:18;32.97;;;5.18;;
14369;SDS011;7268;50.792;0.252;2022-08-19T05:27:46;29.40;;;6.05;;
14369;SDS011;7268;50.792;0.252;2022-08-19T05:30:14;29.73;;;5.88;;
14369;SDS011;7268;50.792;0.252;2022-08-19T05:32:42;39.53;;;4.47;;
14369;SDS011;7268;50.792;0.252;2022-08-19T05:35:10;32.67;;;5.57;;
14369;SDS011;7268;50.792;0.252;2022-08-19T05:37:38;28.77;;;5.05;;
14369;SDS011;7268;50.792;0.252;2022-08-19T05:40:06;35.35;;;4.40;;
14369;SDS011;7268;50.792;0.252;2022-08-19T05:42:34;22.70;;;4.40;;
14369;SDS011;7268;50.792;0.252;2022-08-19T05:45:02;24.33;;;3.70;;
14369;SDS011;7268;50.792;0.252;2022-08-19T05:47:30;22.70;;;3.95;;
14369;SDS011;7268;50.792;0.252;2022-08-19T05:49:58;23.00;;;2.95;;
14369;SDS011;7268;50.792;0.252;2022-08-19T05:52:30;22.27;;;3.08;;
14369;SDS011;7268;50.792;0.252;2022-08-19T05:54:58;27.98;;;4.15;;
14369;SDS011;7268;50.792;0.252;2022-08-19T05:57:26;19.92;;;2.60;;
14369;SDS011;7268;50.792;0.252;2022-08-19T05:59:55;23.60;;;3.60;;
14369;SDS011;7268;50.792;0.252;2022-08-19T06:02:27;19.50;;;3.97;;
14369;SDS011;7268;50.792;0.252;2022-08-19T06:07:24;21.85;;;3.47;;
14369;SDS011;7268;50.792;0.252;2022-08-19T06:09:52;24.23;;;3.42;;
14369;SDS011;7268;50.792;0.252;2022-08-19T06:12:29;32.88;;;4.07;;
14369;SDS011;7268;50.792;0.252;2022-08-19T06:15:05;21.05;;;4.43;;
14369;SDS011;7268;50.792;0.252;2022-08-19T06:17:33;29.60;;;3.75;;
14369;SDS011;7268;50.792;0.252;2022-08-19T06:20:03;29.33;;;3.40;;
14369;SDS011;7268;50.792;0.252;2022-08-19T06:22:30;16.50;;;2.55;;
14369;SDS011;7268;50.792;0.252;2022-08-19T06:24:57;19.13;;;3.03;;
14369;SDS011;7268;50.792;0.252;2022-08-19T06:27:25;16.17;;;2.22;;
14369;SDS011;7268;50.792;0.252;2022-08-19T06:29:52;20.55;;;3.22;;
14369;SDS011;7268;50.792;0.252;2022-08-19T06:32:20;18.92;;;2.03;;
14369;SDS011;7268;50.792;0.252;2022-08-19T06:34:47;17.15;;;2.33;;
14369;SDS011;7268;50.792;0.252;2022-08-19T06:37:14;18.73;;;2.90;;
14369;SDS011;7268;50.792;0.252;2022-08-19T06:39:43;20.08;;;3.08;;
14369;SDS011;7268;50.792;0.252;2022-08-19T06:42:11;11.05;;;2.50;;
14369;SDS011;7268;50.792;0.252;2022-08-19T06:44:43;20.00;;;1.92;;
14369;SDS011;7268;50.792;0.252;2022-08-19T06:47:18;20.98;;;1.90;;
14369;SDS011;7268;50.792;0.252;2022-08-19T06:49:56;14.55;;;2.10;;
14369;SDS011;7268;50.792;0.252;2022-08-19T06:52:31;14.90;;;1.50;;
14369;SDS011;7268;50.792;0.252;2022-08-19T06:55:02;15.10;;;1.50;;
14369;SDS011;7268;50.792;0.252;2022-08-19T06:57:31;17.50;;;2.65;;
14369;SDS011;7268;50.792;0.252;2022-08-19T06:59:59;16.48;;;2.03;;
14369;SDS011;7268;50.792;0.252;2022-08-19T07:02:26;12.95;;;1.50;;
14369;SDS011;7268;50.792;0.252;2022-08-19T07:04:54;19.63;;;1.90;;
14369;SDS011;7268;50.792;0.252;2022-08-19T07:07:24;20.15;;;2.00;;
14369;SDS011;7268;50.792;0.252;2022-08-19T07:09:51;19.20;;;2.03;;
14369;SDS011;7268;50.792;0.252;2022-08-19T07:12:29;20.35;;;1.77;;
14369;SDS011;7268;50.792;0.252;2022-08-19T07:15:01;11.05;;;1.75;;
14369;SDS011;7268;50.792;0.252;2022-08-19T07:17:28;15.88;;;2.13;;
14369;SDS011;7268;50.792;0.252;2022-08-19T07:19:56;21.20;;;2.30;;
14369;SDS011;7268;50.792;0.252;2022-08-19T07:22:31;16.00;;;1.77;;
14369;SDS011;7268;50.792;0.252;2022-08-19T07:25:00;16.02;;;2.28;;
14369;SDS011;7268;50.792;0.252;2022-08-19T07:27:29;13.27;;;1.52;;
14369;SDS011;7268;50.792;0.252;2022-08-19T07:29:59;15.07;;;1.90;;
14369;SDS011;7268;50.792;0.252;2022-08-19T07:32:26;24.65;;;2.72;;
14369;SDS011;7268;50.792;0.252;2022-08-19T07:34:54;15.77;;;2.20;;
14369;SDS011;7268;50.792;0.252;2022-08-19T07:37:22;21.17;;;2.03;;
14369;SDS011;7268;50.792;0.252;2022-08-19T07:39:58;18.98;;;2.40;;
14369;SDS011;7268;50.792;0.252;2022-08-19T07:42:25;12.38;;;1.92;;
14369;SDS011;7268;50.792;0.252;2022-08-19T07:44:56;20.40;;;2.42;;
14369;SDS011;7268;50.792;0.252;2022-08-19T07:47:24;26.90;;;2.40;;
14369;SDS011;7268;50.792;0.252;2022-08-19T07:50:12;14.90;;;2.28;;
14369;SDS011;7268;50.792;0.252;2022-08-19T07:52:39;18.23;;;2.35;;
14369;SDS011;7268;50.792;0.252;2022-08-19T07:55:13;24.33;;;2.45;;
14369;SDS011;7268;50.792;0.252;2022-08-19T07:58:01;18.52;;;2.22;;
14369;SDS011;7268;50.792;0.252;2022-08-19T08:00:30;23.08;;;3.33;;
14369;SDS011;7268;50.792;0.252;2022-08-19T08:02:57;21.42;;;2.50;;
14369;SDS011;7268;50.792;0.252;2022-08-19T08:05:24;16.38;;;2.50;;
14369;SDS011;7268;50.792;0.252;2022-08-19T08:08:11;16.15;;;2.10;;
14369;SDS011;7268;50.792;0.252;2022-08-19T08:10:57;18.13;;;1.98;;
14369;SDS011;7268;50.792;0.252;2022-08-19T08:13:25;13.90;;;2.13;;
14369;SDS011;7268;50.792;0.252;2022-08-19T08:15:53;12.68;;;2.00;;
14369;SDS011;7268;50.792;0.252;2022-08-19T08:18:22;19.08;;;1.92;;
14369;SDS011;7268;50.792;0.252;2022-08-19T08:20:53;13.93;;;1.40;;
14369;SDS011;7268;50.792;0.252;2022-08-19T08:23:20;12.93;;;2.00;;
14369;SDS011;7268;50.792;0.252;2022-08-19T08:25:53;14.10;;;1.60;;
14369;SDS011;7268;50.792;0.252;2022-08-19T08:28:21;17.60;;;1.70;;
14369;SDS011;7268;50.792;0.252;2022-08-19T08:30:49;12.57;;;1.55;;
14369;SDS011;7268;50.792;0.252;2022-08-19T08:33:18;13.70;;;1.02;;
14369;SDS011;7268;50.792;0.252;2022-08-19T08:38:26;15.20;;;1.58;;
14369;SDS011;7268;50.792;0.252;2022-08-19T08:41:06;11.50;;;1.33;;
14369;SDS011;7268;50.792;0.252;2022-08-19T08:43:37;13.32;;;1.40;;
14369;SDS011;7268;50.792;0.252;2022-08-19T08:46:12;13.18;;;1.45;;
14369;SDS011;7268;50.792;0.252;2022-08-19T08:51:29;15.07;;;1.70;;
14369;SDS011;7268;50.792;0.252;2022-08-19T08:54:01;10.90;;;1.75;;
14369;SDS011;7268;50.792;0.252;2022-08-19T08:56:28;10.95;;;1.40;;
14369;SDS011;7268;50.792;0.252;2022-08-19T08:59:10;13.02;;;2.40;;
14369;SDS011;7268;50.792;0.252;2022-08-19T09:01:39;13.50;;;1.85;;
14369;SDS011;7268;50.792;0.252;2022-08-19T09:04:06;12.25;;;1.50;;
14369;SDS011;7268;50.792;0.252;2022-08-19T09:06:36;11.30;;;1.23;;
14369;SDS011;7268;50.792;0.252;2022-08-19T09:12:09;9.57;;;1.45;;
14369;SDS011;7268;50.792;0.252;2022-08-19T09:17:22;10.02;;;1.10;;
14369;SDS011;7268;50.792;0.252;2022-08-19T09:22:36;7.28;;;0.85;;
14369;SDS011;7268;50.792;0.252;2022-08-19T09:25:05;11.38;;;1.20;;
14369;SDS011;7268;50.792;0.252;2022-08-19T09:27:33;8.77;;;1.10;;
14369;SDS011;7268;50.792;0.252;2022-08-19T09:30:10;6.25;;;1.08;;
14369;SDS011;7268;50.792;0.252;2022-08-19T09:32:37;9.88;;;1.70;;
14369;SDS011;7268;50.792;0.252;2022-08-19T09:35:08;9.60;;;1.23;;
14369;SDS011;7268;50.792;0.252;2022-08-19T09:37:37;8.15;;;1.35;;
14369;SDS011;7268;50.792;0.252;2022-08-19T09:40:05;14.27;;;1.20;;
14369;SDS011;7268;50.792;0.252;2022-08-19T09:42:34;11.95;;;1.58;;
14369;SDS011;7268;50.792;0.252;2022-08-19T09:45:02;12.57;;;1.33;;
14369;SDS011;7268;50.792;0.252;2022-08-19T09:47:36;13.93;;;1.60;;
14369;SDS011;7268;50.792;0.252;2022-08-19T09:50:07;12.40;;;1.35;;
14369;SDS011;7268;50.792;0.252;2022-08-19T09:52:35;11.15;;;1.10;;
14369;SDS011;7268;50.792;0.252;2022-08-19T09:55:04;9.93;;;1.20;;
14369;SDS011;7268;50.792;0.252;2022-08-19T09:57:33;7.85;;;1.02;;
14369;SDS011;7268;50.792;0.252;2022-08-19T10:00:00;9.55;;;1.02;;
14369;SDS011;7268;50.792;0.252;2022-08-19T10:02:28;9.02;;;1.27;;
14369;SDS011;7268;50.792;0.252;2022-08-19T10:04:56;5.13;;;1.30;;
14369;SDS011;7268;50.792;0.252;2022-08-19T10:07:51;8.60;;;1.00;;
14369;SDS011;7268;50.792;0.252;2022-08-19T10:10:22;7.72;;;1.10;;
14369;SDS011;7268;50.792;0.252;2022-08-19T10:12:50;5.22;;;0.90;;
14369;SDS011;7268;50.792;0.252;2022-08-19T10:15:17;8.27;;;1.00;;
14369;SDS011;7268;50.792;0.252;2022-08-19T10:17:54;9.48;;;1.10;;
14369;SDS011;7268;50.792;0.252;2022-08-19T10:20:24;8.77;;;0.95;;
14369;SDS011;7268;50.792;0.252;2022-08-19T10:22:51;9.75;;;1.30;;
14369;SDS011;7268;50.792;0.252;2022-08-19T10:25:18;9.60;;;1.23;;
14369;SDS011;7268;50.792;0.252;2022-08-19T10:27:46;4.63;;;0.77;;
14369;SDS011;7268;50.792;0.252;2022-08-19T10:30:16;5.57;;;0.63;;
14369;SDS011;7268;50.792;0.252;2022-08-19T10:32:45;6.78;;;0.95;;
14369;SDS011;7268;50.792;0.252;2022-08-19T10:35:13;7.07;;;1.13;;
14369;SDS011;7268;50.792;0.252;2022-08-19T10:37:47;4.18;;;1.27;;
14369;SDS011;7268;50.792;0.252;2022-08-19T10:40:22;4.40;;;0.80;;
14369;SDS011;7268;50.792;0.252;2022-08-19T10:42:50;8.38;;;1.02;;
14369;SDS011;7268;50.792;0.252;2022-08-19T10:45:17;7.05;;;0.90;;
14369;SDS011;7268;50.792;0.252;2022-08-19T10:47:45;5.20;;;0.85;;
14369;SDS011;7268;50.792;0.252;2022-08-19T10:50:12;4.68;;;0.70;;
14369;SDS011;7268;50.792;0.252;2022-08-19T10:53:02;4.65;;;0.70;;
14369;SDS011;7268;50.792;0.252;2022-08-19T10:55:34;3.55;;;0.50;;
14369;SDS011;7268;50.792;0.252;2022-08-19T10:58:21;2.42;;;0.50;;
14369;SDS011;7268;50.792;0.252;2022-08-19T11:00:52;4.88;;;0.63;;
14369;SDS011;7268;50.792;0.252;2022-08-19T11:03:20;4.68;;;0.40;;
14369;SDS011;7268;50.792;0.252;2022-08-19T11:05:57;3.58;;;0.77;;
14369;SDS011;7268;50.792;0.252;2022-08-19T11:08:25;3.75;;;0.60;;
14369;SDS011;7268;50.792;0.252;2022-08-19T11:10:53;3.95;;;0.50;;
14369;SDS011;7268;50.792;0.252;2022-08-19T11:13:27;5.60;;;0.80;;
14369;SDS011;7268;50.792;0.252;2022-08-19T11:15:59;3.20;;;0.50;;
14369;SDS011;7268;50.792;0.252;2022-08-19T11:18:33;4.18;;;0.50;;
14369;SDS011;7268;50.792;0.252;2022-08-19T11:21:10;3.10;;;0.40;;
14369;SDS011;7268;50.792;0.252;2022-08-19T11:23:38;3.63;;;0.55;;
14369;SDS011;7268;50.792;0.252;2022-08-19T11:26:05;4.90;;;0.80;;
14369;SDS011;7268;50.792;0.252;2022-08-19T11:28:33;3.33;;;0.82;;
14369;SDS011;7268;50.792;0.252;2022-08-19T11:31:00;4.53;;;0.60;;
14369;SDS011;7268;50.792;0.252;2022-08-19T11:33:32;5.25;;;0.80;;
14369;SDS011;7268;50.792;0.252;2022-08-19T11:35:59;5.78;;;0.50;;
14369;SDS011;7268;50.792;0.252;2022-08-19T11:38:27;2.80;;;0.50;;
14369;SDS011;7268;50.792;0.252;2022-08-19T11:40:58;2.05;;;0.40;;
14369;SDS011;7268;50.792;0.252;2022-08-19T11:43:27;2.83;;;0.40;;
14369;SDS011;7268;50.792;0.252;2022-08-19T11:45:57;0.90;;;0.30;;
14369;SDS011;7268;50.792;0.252;2022-08-19T11:48:25;2.40;;;0.25;;
14369;SDS011;7268;50.792;0.252;2022-08-19T11:50:52;1.85;;;0.40;;
14369;SDS011;7268;50.792;0.252;2022-08-19T11:53:23;3.13;;;0.40;;
14369;SDS011;7268;50.792;0.252;2022-08-19T11:55:52;3.55;;;0.50;;
14369;SDS011;7268;50.792;0.252;2022-08-19T11:58:22;3.80;;;0.88;;
14369;SDS011;7268;50.792;0.252;2022-08-19T12:00:49;3.08;;;0.50;;
14369;SDS011;7268;50.792;0.252;2022-08-19T12:03:17;2.15;;;0.47;;
14369;SDS011;7268;50.792;0.252;2022-08-19T12:05:45;0.93;;;0.20;;
14369;SDS011;7268;50.792;0.252;2022-08-19T12:08:13;3.78;;;0.50;;
14369;SDS011;7268;50.792;0.252;2022-08-19T12:10:41;3.28;;;0.30;;
14369;SDS011;7268;50.792;0.252;2022-08-19T12:13:09;1.05;;;0.30;;
14369;SDS011;7268;50.792;0.252;2022-08-19T12:15:37;1.42;;;0.30;;
14369;SDS011;7268;50.792;0.252;2022-08-19T12:18:06;1.20;;;0.30;;
14369;SDS011;7268;50.792;0.252;2022-08-19T12:20:35;0.38;;;0.35;;
14369;SDS011;7268;50.792;0.252;2022-08-19T12:23:04;1.05;;;0.70;;
14369;SDS011;7268;50.792;0.252;2022-08-19T12:25:31;1.88;;;0.73;;
14369;SDS011;7268;50.792;0.252;2022-08-19T12:27:59;1.58;;;0.80;;
14369;SDS011;7268;50.792;0.252;2022-08-19T12:30:26;1.83;;;0.82;;
14369;SDS011;7268;50.792;0.252;2022-08-19T12:32:54;1.58;;;0.80;;
14369;SDS011;7268;50.792;0.252;2022-08-19T12:35:23;4.13;;;0.80;;
14369;SDS011;7268;50.792;0.252;2022-08-19T12:37:50;0.30;;;0.25;;
14369;SDS011;7268;50.792;0.252;2022-08-19T12:42:51;1.75;;;0.65;;
14369;SDS011;7268;50.792;0.252;2022-08-19T12:45:18;2.42;;;0.60;;
14369;SDS011;7268;50.792;0.252;2022-08-19T12:47:46;1.98;;;0.40;;
14369;SDS011;7268;50.792;0.252;2022-08-19T12:50:20;2.95;;;0.68;;
14369;SDS011;7268;50.792;0.252;2022-08-19T12:52:47;1.58;;;0.47;;
14369;SDS011;7268;50.792;0.252;2022-08-19T12:55:15;2.90;;;0.50;;
14369;SDS011;7268;50.792;0.252;2022-08-19T12:57:44;4.22;;;0.70;;
14369;SDS011;7268;50.792;0.252;2022-08-19T13:00:13;0.80;;;0.50;;
14369;SDS011;7268;50.792;0.252;2022-08-19T13:02:42;1.33;;;0.60;;
14369;SDS011;7268;50.792;0.252;2022-08-19T13:05:11;0.50;;;0.45;;
14369;SDS011;7268;50.792;0.252;2022-08-19T13:07:39;0.60;;;0.32;;
14369;SDS011;7268;50.792;0.252;2022-08-19T13:10:08;1.25;;;0.30;;
14369;SDS011;7268;50.792;0.252;2022-08-19T13:12:35;2.55;;;0.35;;
14369;SDS011;7268;50.792;0.252;2022-08-19T13:15:03;2.55;;;0.40;;
14369;SDS011;7268;50.792;0.252;2022-08-19T13:17:36;3.10;;;0.60;;
14369;SDS011;7268;50.792;0.252;2022-08-19T13:20:04;1.85;;;0.52;;
14369;SDS011;7268;50.792;0.252;2022-08-19T13:22:34;1.25;;;0.45;;
14369;SDS011;7268;50.792;0.252;2022-08-19T13:25:05;2.28;;;0.50;;
14369;SDS011;7268;50.792;0.252;2022-08-19T13:27:33;3.42;;;0.50;;
14369;SDS011;7268;50.792;0.252;2022-08-19T13:30:00;2.78;;;0.88;;
14369;SDS011;7268;50.792;0.252;2022-08-19T13:32:46;3.78;;;0.50;;
14369;SDS011;7268;50.792;0.252;2022-08-19T13:35:32;2.65;;;0.70;;
14369;SDS011;7268;50.792;0.252;2022-08-19T13:38:00;1.02;;;0.50;;
14369;SDS011;7268;50.792;0.252;2022-08-19T13:40:37;1.60;;;0.52;;
14369;SDS011;7268;50.792;0.252;2022-08-19T13:43:06;0.95;;;0.40;;
14369;SDS011;7268;50.792;0.252;2022-08-19T13:45:49;3.73;;;0.70;;
14369;SDS011;7268;50.792;0.252;2022-08-19T13:48:16;3.90;;;0.82;;
14369;SDS011;7268;50.792;0.252;2022-08-19T13:50:44;2.53;;;0.73;;
14369;SDS011;7268;50.792;0.252;2022-08-19T13:53:13;2.38;;;0.60;;
14369;SDS011;7268;50.792;0.252;2022-08-19T13:55:41;4.95;;;0.95;;
14369;SDS011;7268;50.792;0.252;2022-08-19T13:58:09;9.52;;;1.00;;
14369;SDS011;7268;50.792;0.252;2022-08-19T14:00:39;10.35;;;1.63;;
14369;SDS011;7268;50.792;0.252;2022-08-19T14:03:07;3.13;;;0.70;;
14369;SDS011;7268;50.792;0.252;2022-08-19T14:05:34;7.05;;;0.95;;
14369;SDS011;7268;50.792;0.252;2022-08-19T14:08:02;8.43;;;1.08;;
14369;SDS011;7268;50.792;0.252;2022-08-19T14:10:29;4.75;;;0.70;;
14369;SDS011;7268;50.792;0.252;2022-08-19T14:12:58;5.82;;;0.90;;
14369;SDS011;7268;50.792;0.252;2022-08-19T14:15:26;3.90;;;0.70;;
14369;SDS011;7268;50.792;0.252;2022-08-19T14:17:54;7.00;;;0.75;;
14369;SDS011;7268;50.792;0.252;2022-08-19T14:20:22;3.97;;;0.80;;
14369;SDS011;7268;50.792;0.252;2022-08-19T14:22:51;6.38;;;1.17;;
14369;SDS011;7268;50.792;0.252;2022-08-19T14:25:21;2.05;;;0.70;;
14369;SDS011;7268;50.792;0.252;2022-08-19T14:27:49;6.53;;;0.80;;
14369;SDS011;7268;50.792;0.252;2022-08-19T14:30:18;3.05;;;0.57;;
14369;SDS011;7268;50.792;0.252;2022-08-19T14:32:45;3.67;;;0.73;;
14369;SDS011;7268;50.792;0.252;2022-08-19T14:35:13;1.95;;;0.85;;
14369;SDS011;7268;50.792;0.252;2022-08-19T14:37:41;3.58;;;1.00;;
14369;SDS011;7268;50.792;0.252;2022-08-19T14:40:15;2.72;;;0.50;;
14369;SDS011;7268;50.792;0.252;2022-08-19T14:42:43;7.50;;;1.08;;
14369;SDS011;7268;50.792;0.252;2022-08-19T14:45:11;5.15;;;0.98;;
14369;SDS011;7268;50.792;0.252;2022-08-19T14:47:38;3.78;;;0.90;;
14369;SDS011;7268;50.792;0.252;2022-08-19T14:50:09;3.10;;;1.50;;
14369;SDS011;7268;50.792;0.252;2022-08-19T14:52:44;6.45;;;1.05;;
14369;SDS011;7268;50.792;0.252;2022-08-19T14:55:14;4.20;;;1.17;;
14369;SDS011;7268;50.792;0.252;2022-08-19T14:57:42;5.97;;;1.05;;
14369;SDS011;7268;50.792;0.252;2022-08-19T15:00:10;3.63;;;1.30;;
14369;SDS011;7268;50.792;0.252;2022-08-19T15:02:39;7.45;;;1.63;;
14369;SDS011;7268;50.792;0.252;2022-08-19T15:05:07;6.78;;;1.80;;
14369;SDS011;7268;50.792;0.252;2022-08-19T15:07:35;7.75;;;2.20;;
14369;SDS011;7268;50.792;0.252;2022-08-19T15:10:03;7.00;;;1.42;;
14369;SDS011;7268;50.792;0.252;2022-08-19T15:12:30;9.50;;;1.35;;
14369;SDS011;7268;50.792;0.252;2022-08-19T15:14:58;5.65;;;1.23;;
14369;SDS011;7268;50.792;0.252;2022-08-19T15:17:25;5.85;;;1.13;;
14369;SDS011;7268;50.792;0.252;2022-08-19T15:20:12;6.22;;;1.23;;
14369;SDS011;7268;50.792;0.252;2022-08-19T15:22:40;4.80;;;1.20;;
14369;SDS011;7268;50.792;0.252;2022-08-19T15:25:09;7.05;;;1.20;;
14369;SDS011;7268;50.792;0.252;2022-08-19T15:27:37;8.05;;;1.38;;
14369;SDS011;7268;50.792;0.252;2022-08-19T15:30:05;5.97;;;0.93;;
14369;SDS011;7268;50.792;0.252;2022-08-19T15:32:34;3.97;;;0.82;;
14369;SDS011;7268;50.792;0.252;2022-08-19T15:35:03;15.70;;;1.23;;
14369;SDS011;7268;50.792;0.252;2022-08-19T15:37:31;8.30;;;0.82;;
14369;SDS011;7268;50.792;0.252;2022-08-19T15:40:03;6.67;;;0.90;;